Time;durP1;ratioP1;P1;durP2;ratioP2;P2;SDS_P1;SDS_P2;PMS_P1;PMS_P2;Temp;Humidity;BMP_temperature;BMP_pressure;BME280_temperature;BME280_humidity;BME280_pressure;Samples;Min_cycle;Max_cycle;Signal;HPM_P1;HPM_P2
2023/07/27 00:01:41;;;;;;;78.03;29.07;;;14.30;99.90;;;;;;6241143;23;20412;-74
2023/07/27 00:04:08;;;;;;;75.20;30.47;;;14.30;99.90;;;;;;6241533;23;20411;-75
2023/07/27 00:06:35;;;;;;;70.77;30.17;;;14.30;99.90;;;;;;6241808;23;20426;-75
2023/07/27 00:09:01;;;;;;;76.33;30.70;;;14.30;99.90;;;;;;6241571;23;20400;-75
2023/07/27 00:11:28;;;;;;;73.50;32.00;;;14.30;99.90;;;;;;6241400;23;20435;-75
2023/07/27 00:13:56;;;;;;;73.93;30.20;;;14.30;99.90;;;;;;6241068;23;20415;-75
2023/07/27 00:16:23;;;;;;;73.00;29.97;;;14.30;99.90;;;;;;6241060;23;20416;-75
2023/07/27 00:18:50;;;;;;;73.17;29.97;;;14.30;99.90;;;;;;6242568;23;20502;-76
2023/07/27 00:21:16;;;;;;;71.80;30.73;;;14.30;99.90;;;;;;6243037;23;20415;-76
2023/07/27 00:23:43;;;;;;;71.57;29.40;;;14.30;99.90;;;;;;6243686;23;20415;-76
2023/07/27 00:26:10;;;;;;;78.13;31.40;;;14.30;99.90;;;;;;6243486;23;20407;-75
2023/07/27 00:28:36;;;;;;;72.87;31.40;;;14.30;99.90;;;;;;6243565;23;20404;-75
2023/07/27 00:31:04;;;;;;;73.60;30.77;;;14.40;99.90;;;;;;6243533;23;20415;-75
2023/07/27 00:33:31;;;;;;;72.67;31.37;;;14.40;99.90;;;;;;6242846;23;20432;-75
2023/07/27 00:35:58;;;;;;;74.23;30.40;;;14.40;99.90;;;;;;6243362;23;20408;-75
2023/07/27 00:38:25;;;;;;;73.83;30.23;;;14.40;99.90;;;;;;6243432;23;20466;-76
2023/07/27 00:40:52;;;;;;;72.23;29.83;;;14.50;99.90;;;;;;6243540;23;20408;-75
2023/07/27 00:43:19;;;;;;;77.63;30.73;;;14.40;99.90;;;;;;6243173;23;20408;-76
2023/07/27 00:45:49;;;;;;;73.90;29.20;;;14.40;99.90;;;;;;6243493;23;20407;-76
2023/07/27 00:48:17;;;;;;;74.33;28.37;;;14.50;99.90;;;;;;6243405;23;20426;-75
2023/07/27 00:50:45;;;;;;;70.27;28.90;;;14.50;99.90;;;;;;6243353;23;20403;-75
2023/07/27 00:53:12;;;;;;;71.47;29.93;;;14.50;99.90;;;;;;6242980;23;20946;-75
2023/07/27 00:55:39;;;;;;;72.77;29.30;;;14.50;99.90;;;;;;6243207;23;20415;-75
2023/07/27 00:58:06;;;;;;;70.60;28.87;;;14.60;99.90;;;;;;6243011;23;20439;-75
2023/07/27 01:00:33;;;;;;;71.77;29.20;;;14.60;99.90;;;;;;6243253;23;20464;-74
2023/07/27 01:03:00;;;;;;;72.37;29.57;;;14.60;99.90;;;;;;6243136;23;20408;-74
2023/07/27 01:05:28;;;;;;;70.87;29.47;;;14.60;99.90;;;;;;6243447;23;20503;-76
2023/07/27 01:07:55;;;;;;;75.17;29.50;;;14.50;99.90;;;;;;6243311;23;20410;-74
2023/07/27 01:10:29;;;;;;;74.60;29.23;;;14.50;99.90;;;;;;6242793;23;20411;-74
2023/07/27 01:12:59;;;;;;;72.50;29.60;;;14.50;99.90;;;;;;6243006;23;20983;-74
2023/07/27 01:15:30;;;;;;;73.90;31.10;;;14.50;99.90;;;;;;6243180;23;20435;-74
2023/07/27 01:18:05;;;;;;;71.30;28.47;;;14.50;99.90;;;;;;6242982;23;20431;-74
2023/07/27 01:20:39;;;;;;;69.80;28.00;;;14.60;99.90;;;;;;6243559;23;20395;-75
2023/07/27 01:23:32;;;;;;;69.07;27.80;;;14.60;99.90;;;;;;6243411;23;20399;-75
2023/07/27 01:26:23;;;;;;;71.50;28.97;;;14.60;99.90;;;;;;6243630;23;20392;-75
2023/07/27 01:29:03;;;;;;;71.60;29.77;;;14.60;99.90;;;;;;6243725;23;20387;-75
2023/07/27 01:31:41;;;;;;;70.17;28.17;;;14.50;99.90;;;;;;6243670;23;20401;-76
2023/07/27 01:34:15;;;;;;;72.23;28.40;;;14.50;99.90;;;;;;6243137;22;20443;-76
2023/07/27 01:36:42;;;;;;;68.87;27.97;;;14.50;99.90;;;;;;6243153;23;20396;-76
2023/07/27 01:39:12;;;;;;;72.40;29.00;;;14.60;99.90;;;;;;6243020;23;20457;-75
2023/07/27 01:41:42;;;;;;;71.03;27.90;;;14.60;99.90;;;;;;6242986;23;20404;-75
2023/07/27 01:44:10;;;;;;;71.50;28.50;;;14.60;99.90;;;;;;6243066;23;20727;-75
2023/07/27 01:46:39;;;;;;;73.50;28.07;;;14.50;99.90;;;;;;6242813;23;20431;-74
2023/07/27 01:49:07;;;;;;;69.80;28.10;;;14.50;99.90;;;;;;6243259;23;20448;-75
2023/07/27 01:51:35;;;;;;;69.27;26.83;;;14.50;99.90;;;;;;6242659;23;20884;-75
2023/07/27 01:54:02;;;;;;;69.90;26.13;;;14.50;99.90;;;;;;6243002;23;20408;-74
2023/07/27 01:56:30;;;;;;;71.13;28.10;;;14.40;99.90;;;;;;6242790;23;20430;-74
2023/07/27 01:58:58;;;;;;;70.70;29.50;;;14.40;99.90;;;;;;6242743;23;20436;-74
2023/07/27 02:01:25;;;;;;;73.07;28.80;;;14.30;99.90;;;;;;6242639;23;20757;-74
2023/07/27 02:03:54;;;;;;;73.20;28.93;;;14.20;99.90;;;;;;6242902;23;20439;-74
2023/07/27 02:06:21;;;;;;;72.53;28.07;;;14.20;99.90;;;;;;6242706;23;20403;-74
2023/07/27 02:08:48;;;;;;;75.60;30.07;;;14.20;99.90;;;;;;6242379;23;20408;-75
2023/07/27 02:11:17;;;;;;;74.90;31.50;;;14.10;99.90;;;;;;6242752;23;20415;-75
2023/07/27 02:13:47;;;;;;;71.77;29.57;;;14.10;99.90;;;;;;6242801;23;20802;-75
2023/07/27 02:16:20;;;;;;;75.47;32.80;;;14.10;99.90;;;;;;6242772;23;20773;-75
2023/07/27 02:18:50;;;;;;;74.70;32.10;;;14.10;99.90;;;;;;6242507;23;20440;-75
2023/07/27 02:21:18;;;;;;;71.27;30.10;;;14.10;99.90;;;;;;6243065;23;20411;-76
2023/07/27 02:23:46;;;;;;;81.90;30.33;;;14.10;99.90;;;;;;6242786;23;20412;-75
2023/07/27 02:26:13;;;;;;;73.97;29.43;;;14.10;99.90;;;;;;6243168;23;20415;-75
2023/07/27 02:28:39;;;;;;;76.03;31.70;;;14.10;99.90;;;;;;6242681;23;20404;-75
2023/07/27 02:31:06;;;;;;;72.37;30.50;;;14.10;99.90;;;;;;6242952;23;20434;-75
2023/07/27 02:33:33;;;;;;;73.77;30.00;;;14.10;99.90;;;;;;6242546;23;20435;-75
2023/07/27 02:36:00;;;;;;;76.30;31.10;;;14.10;99.90;;;;;;6242479;23;20926;-75
2023/07/27 02:38:28;;;;;;;74.10;30.50;;;14.00;99.90;;;;;;6242846;23;20543;-75
2023/07/27 02:40:54;;;;;;;73.70;30.37;;;14.00;99.90;;;;;;6242545;23;20410;-74
2023/07/27 02:43:21;;;;;;;70.83;29.90;;;14.00;99.90;;;;;;6242753;23;20408;-75
2023/07/27 02:45:48;;;;;;;80.43;28.30;;;14.00;99.90;;;;;;6243062;23;20416;-75
2023/07/27 02:48:15;;;;;;;70.70;27.03;;;14.00;99.90;;;;;;6242762;23;20403;-75
2023/07/27 02:50:49;;;;;;;72.00;27.07;;;14.00;99.90;;;;;;6242619;23;20861;-75
2023/07/27 02:53:16;;;;;;;71.87;28.50;;;14.00;99.90;;;;;;6242471;23;20387;-75
2023/07/27 02:55:54;;;;;;;69.00;26.80;;;14.10;99.90;;;;;;6242877;23;20430;-76
2023/07/27 02:58:20;;;;;;;72.80;30.93;;;14.00;99.90;;;;;;6242598;23;20427;-76
2023/07/27 03:00:51;;;;;;;71.50;28.90;;;14.00;99.90;;;;;;6242584;23;20740;-75
2023/07/27 03:03:18;;;;;;;72.60;28.63;;;14.00;99.90;;;;;;6242592;23;20403;-76
2023/07/27 03:05:44;;;;;;;71.17;29.13;;;14.00;99.90;;;;;;6242514;23;20414;-76
2023/07/27 03:08:11;;;;;;;72.27;29.47;;;14.00;99.90;;;;;;6242505;23;20411;-76
2023/07/27 03:10:39;;;;;;;75.70;31.30;;;14.10;99.90;;;;;;6242542;23;20888;-76
2023/07/27 03:13:07;;;;;;;71.60;28.73;;;14.10;99.90;;;;;;6242243;23;20515;-75
2023/07/27 03:15:33;;;;;;;74.70;29.33;;;14.10;99.90;;;;;;6242151;23;20415;-77
2023/07/27 03:18:00;;;;;;;73.23;28.30;;;14.10;99.90;;;;;;6242527;23;20412;-76
2023/07/27 03:20:27;;;;;;;75.47;30.03;;;14.20;99.90;;;;;;6240784;23;20415;-76
2023/07/27 03:22:53;;;;;;;73.20;28.60;;;14.20;99.90;;;;;;6242000;23;20427;-76
2023/07/27 03:25:20;;;;;;;71.17;29.17;;;14.30;99.90;;;;;;6238401;23;20408;-75
2023/07/27 03:27:47;;;;;;;72.30;29.37;;;14.30;99.90;;;;;;6239534;23;20404;-75
2023/07/27 03:30:15;;;;;;;69.77;26.20;;;14.30;99.90;;;;;;6241259;23;20400;-76
2023/07/27 03:32:41;;;;;;;68.70;26.60;;;14.30;99.90;;;;;;6241990;23;20429;-76
2023/07/27 03:35:09;;;;;;;69.53;26.30;;;14.40;99.90;;;;;;6240942;23;20392;-75
2023/07/27 03:37:35;;;;;;;70.90;25.60;;;14.40;99.90;;;;;;6241873;23;20502;-76
2023/07/27 03:40:02;;;;;;;69.67;25.97;;;14.40;99.90;;;;;;6242519;23;20444;-76
2023/07/27 03:42:29;;;;;;;66.90;24.70;;;14.50;99.90;;;;;;6242943;23;20414;-76
2023/07/27 03:44:56;;;;;;;71.67;26.80;;;14.50;99.90;;;;;;6242125;23;20403;-76
2023/07/27 03:47:24;;;;;;;68.10;25.17;;;14.50;99.90;;;;;;6242993;23;20435;-76
2023/07/27 03:49:50;;;;;;;68.17;25.53;;;14.60;99.90;;;;;;6242923;23;20415;-76
2023/07/27 03:52:17;;;;;;;67.37;25.50;;;14.60;99.90;;;;;;6243056;23;20490;-76
2023/07/27 03:54:44;;;;;;;68.27;25.63;;;14.60;99.90;;;;;;6242537;23;20900;-76
2023/07/27 03:57:11;;;;;;;66.50;24.87;;;14.60;99.90;;;;;;6242894;23;20839;-76
2023/07/27 03:59:37;;;;;;;66.93;25.17;;;14.50;99.90;;;;;;6242955;23;20435;-76
2023/07/27 04:02:04;;;;;;;69.27;27.27;;;14.50;99.90;;;;;;6236437;23;20432;-74
2023/07/27 04:04:32;;;;;;;68.67;25.80;;;14.50;99.90;;;;;;6242346;23;20404;-75
2023/07/27 04:06:59;;;;;;;69.57;26.60;;;14.50;99.90;;;;;;6242685;23;20468;-75
2023/07/27 04:09:26;;;;;;;68.63;26.60;;;14.50;99.90;;;;;;6242794;23;20399;-74
2023/07/27 04:11:53;;;;;;;67.80;25.80;;;14.50;99.90;;;;;;6242802;23;20432;-74
2023/07/27 04:14:20;;;;;;;68.97;27.23;;;14.50;99.90;;;;;;6242489;23;20411;-74
2023/07/27 04:16:47;;;;;;;69.50;27.30;;;14.50;99.90;;;;;;6242644;23;20738;-74
2023/07/27 04:19:13;;;;;;;67.10;24.63;;;14.50;99.90;;;;;;6242871;23;20448;-76
2023/07/27 04:21:41;;;;;;;69.00;26.70;;;14.50;99.90;;;;;;6240487;23;20419;-75
2023/07/27 04:24:08;;;;;;;69.10;27.53;;;14.50;99.90;;;;;;6242457;23;20795;-75
2023/07/27 04:26:35;;;;;;;67.93;26.30;;;14.60;99.90;;;;;;6241970;23;20408;-75
2023/07/27 04:29:02;;;;;;;68.67;25.90;;;14.60;99.90;;;;;;6241786;23;20400;-75
2023/07/27 04:31:28;;;;;;;66.90;24.40;;;14.50;99.90;;;;;;6240298;23;20427;-75
2023/07/27 04:33:55;;;;;;;68.17;25.73;;;14.50;99.90;;;;;;6242010;23;21034;-76
2023/07/27 04:36:22;;;;;;;74.00;26.77;;;14.60;99.90;;;;;;6242216;23;20407;-75
2023/07/27 04:38:50;;;;;;;67.77;24.43;;;14.60;99.90;;;;;;6242463;23;20440;-76
2023/07/27 04:41:17;;;;;;;69.23;26.20;;;14.60;99.90;;;;;;6242455;23;20412;-76
2023/07/27 04:43:44;;;;;;;68.37;25.73;;;14.60;99.90;;;;;;6242498;23;20404;-75
2023/07/27 04:46:11;;;;;;;72.30;28.10;;;14.60;99.90;;;;;;6242367;23;20407;-76
2023/07/27 04:48:37;;;;;;;71.57;28.23;;;14.60;99.90;;;;;;6242002;23;20403;-76
2023/07/27 04:51:04;;;;;;;74.17;27.57;;;14.70;99.90;;;;;;6242248;23;20406;-76
2023/07/27 04:53:31;;;;;;;71.40;27.13;;;14.60;99.90;;;;;;6242123;23;20892;-76
2023/07/27 04:55:59;;;;;;;71.50;27.70;;;14.70;99.90;;;;;;6242336;23;20411;-76
2023/07/27 04:58:25;;;;;;;75.40;28.53;;;14.70;99.90;;;;;;6242392;23;20408;-76
2023/07/27 05:00:53;;;;;;;71.17;28.40;;;14.70;99.90;;;;;;6242219;23;20733;-76
2023/07/27 05:03:20;;;;;;;69.87;27.67;;;14.80;99.90;;;;;;6242449;23;20832;-76
2023/07/27 05:05:47;;;;;;;70.97;25.77;;;14.90;99.90;;;;;;6243791;23;20416;-76
2023/07/27 05:08:14;;;;;;;73.30;25.90;;;14.90;99.90;;;;;;6243985;23;20407;-76
2023/07/27 05:10:41;;;;;;;76.57;28.70;;;15.00;99.90;;;;;;6244268;23;20404;-76
2023/07/27 05:13:09;;;;;;;71.20;28.10;;;15.10;99.90;;;;;;6244105;23;20434;-76
2023/07/27 05:15:35;;;;;;;75.30;26.17;;;15.00;99.90;;;;;;6243977;23;20414;-76
2023/07/27 05:18:02;;;;;;;72.70;26.80;;;15.10;99.90;;;;;;6244091;23;20403;-76
2023/07/27 05:20:29;;;;;;;69.30;27.23;;;15.30;99.90;;;;;;6244170;23;20443;-76
2023/07/27 05:22:55;;;;;;;69.30;25.70;;;15.30;99.90;;;;;;6244024;23;20915;-76
2023/07/27 05:25:22;;;;;;;69.87;26.47;;;15.30;99.90;;;;;;6244244;23;20404;-75
2023/07/27 05:27:49;;;;;;;69.90;25.30;;;15.40;99.90;;;;;;6244144;23;20725;-75
2023/07/27 05:30:17;;;;;;;70.63;26.13;;;15.40;99.90;;;;;;6243927;23;21249;-76
2023/07/27 05:32:44;;;;;;;71.00;25.97;;;15.40;99.90;;;;;;6243630;23;20408;-75
2023/07/27 05:35:10;;;;;;;69.30;24.63;;;15.40;99.90;;;;;;6244281;23;20399;-75
2023/07/27 05:37:38;;;;;;;67.60;24.90;;;15.50;99.90;;;;;;6244273;23;20404;-76
2023/07/27 05:40:06;;;;;;;70.73;24.47;;;15.50;99.90;;;;;;6243739;23;20446;-76
2023/07/27 05:42:33;;;;;;;67.87;23.23;;;15.60;99.90;;;;;;6243739;23;20971;-76
2023/07/27 05:45:00;;;;;;;68.27;25.20;;;15.70;99.90;;;;;;6244025;23;20408;-76
2023/07/27 05:47:28;;;;;;;67.37;24.53;;;15.80;99.90;;;;;;6243738;23;20411;-77
2023/07/27 05:49:55;;;;;;;68.57;24.43;;;15.80;99.90;;;;;;6243893;23;20503;-76
2023/07/27 05:52:22;;;;;;;68.70;25.10;;;15.90;99.90;;;;;;6243855;23;20404;-76
2023/07/27 05:54:48;;;;;;;74.80;26.90;;;16.00;99.90;;;;;;6243924;23;20412;-76
2023/07/27 05:57:15;;;;;;;68.63;25.10;;;16.00;99.90;;;;;;6243408;23;20871;-76
2023/07/27 05:59:42;;;;;;;69.20;25.60;;;16.00;99.90;;;;;;6243815;23;20436;-76
2023/07/27 06:02:09;;;;;;;67.60;24.57;;;16.00;99.90;;;;;;6243701;23;20414;-77
2023/07/27 06:04:37;;;;;;;68.20;25.40;;;16.00;99.90;;;;;;6243849;23;20408;-77
2023/07/27 06:07:05;;;;;;;66.77;25.23;;;16.00;99.90;;;;;;6243784;23;20675;-76
2023/07/27 06:09:31;;;;;;;70.03;25.73;;;16.00;99.90;;;;;;6243798;23;20431;-76
2023/07/27 06:11:58;;;;;;;68.57;24.60;;;16.00;99.90;;;;;;6243155;23;20447;-76
2023/07/27 06:14:25;;;;;;;68.63;25.03;;;16.10;99.90;;;;;;6243871;23;20415;-77
2023/07/27 06:16:52;;;;;;;69.23;25.40;;;16.20;99.90;;;;;;6243263;23;20785;-77
2023/07/27 06:19:18;;;;;;;70.67;25.00;;;16.20;99.90;;;;;;6243614;23;20436;-76
2023/07/27 06:21:46;;;;;;;67.67;24.70;;;16.20;99.90;;;;;;6243634;23;20415;-77
2023/07/27 06:24:13;;;;;;;68.10;25.90;;;16.30;99.90;;;;;;6243478;23;20738;-76
2023/07/27 06:26:40;;;;;;;71.20;25.30;;;16.50;99.90;;;;;;6243675;23;20400;-77
2023/07/27 06:29:07;;;;;;;68.90;24.83;;;16.70;99.90;;;;;;6243190;23;20641;-76
2023/07/27 06:31:33;;;;;;;74.70;27.07;;;16.90;99.90;;;;;;6243398;23;20408;-76
2023/07/27 06:34:00;;;;;;;70.50;23.83;;;17.30;99.90;;;;;;6243257;22;20432;-76
2023/07/27 06:36:27;;;;;;;67.20;22.47;;;17.60;99.90;;;;;;6243485;23;20410;-77
2023/07/27 06:38:55;;;;;;;69.77;24.13;;;18.00;99.90;;;;;;6243392;23;20411;-76
2023/07/27 06:41:25;;;;;;;71.37;24.33;;;18.30;99.90;;;;;;6243405;23;20535;-75
2023/07/27 06:43:52;;;;;;;66.40;23.30;;;18.50;99.90;;;;;;6243401;23;20411;-76
2023/07/27 06:46:19;;;;;;;69.40;24.37;;;18.80;99.90;;;;;;6243311;23;20412;-77
2023/07/27 06:48:46;;;;;;;68.27;24.40;;;18.90;99.90;;;;;;6243346;23;20418;-77
2023/07/27 06:51:12;;;;;;;73.40;25.20;;;18.90;99.90;;;;;;6243273;23;20864;-76
2023/07/27 06:53:39;;;;;;;71.23;24.10;;;18.80;99.90;;;;;;6243322;23;20486;-77
2023/07/27 06:56:07;;;;;;;69.57;24.10;;;18.90;99.90;;;;;;6242739;23;20744;-76
2023/07/27 06:58:34;;;;;;;65.87;21.87;;;19.10;99.90;;;;;;6242793;23;20419;-77
2023/07/27 07:01:01;;;;;;;68.70;25.37;;;19.10;99.90;;;;;;6242878;23;20798;-77
2023/07/27 07:03:27;;;;;;;67.47;25.13;;;19.10;99.90;;;;;;6243203;23;20411;-75
2023/07/27 07:05:55;;;;;;;68.93;25.37;;;19.30;99.90;;;;;;6242694;23;20899;-76
2023/07/27 07:08:21;;;;;;;78.40;24.30;;;19.50;99.90;;;;;;6243196;23;20411;-76
2023/07/27 07:10:48;;;;;;;66.97;23.10;;;19.50;99.90;;;;;;6242838;23;20404;-76
2023/07/27 07:13:16;;;;;;;69.60;25.07;;;19.70;99.90;;;;;;6243118;23;20434;-76
2023/07/27 07:15:45;;;;;;;66.80;23.43;;;19.70;99.90;;;;;;6242886;23;20408;-77
2023/07/27 07:18:11;;;;;;;66.87;24.30;;;19.60;99.90;;;;;;6242887;23;20908;-76
2023/07/27 07:20:38;;;;;;;67.30;23.60;;;19.50;99.90;;;;;;6243099;23;20444;-75
2023/07/27 07:23:05;;;;;;;67.97;24.30;;;19.50;99.90;;;;;;6242871;23;20962;-76
2023/07/27 07:25:31;;;;;;;72.80;25.27;;;19.50;99.90;;;;;;6242998;23;20408;-76
2023/07/27 07:27:58;;;;;;;69.60;24.40;;;19.50;99.90;;;;;;6242890;23;20414;-76
2023/07/27 07:30:26;;;;;;;69.00;24.00;;;19.40;99.90;;;;;;6242758;23;20892;-77
2023/07/27 07:32:53;;;;;;;66.63;24.77;;;19.30;99.90;;;;;;6242283;22;20416;-76
2023/07/27 07:35:20;;;;;;;66.00;23.57;;;19.40;99.90;;;;;;6242553;23;20895;-76
2023/07/27 07:37:47;;;;;;;68.50;24.80;;;19.50;99.90;;;;;;6243147;23;20407;-76
2023/07/27 07:40:16;;;;;;;67.00;24.47;;;19.70;99.90;;;;;;6242706;23;20522;-76
2023/07/27 07:42:43;;;;;;;68.70;22.90;;;19.80;99.90;;;;;;6242960;23;20478;-75
2023/07/27 07:45:11;;;;;;;66.70;23.67;;;19.80;99.90;;;;;;6242649;23;20782;-76
2023/07/27 07:47:39;;;;;;;73.93;22.97;;;19.80;99.90;;;;;;6243148;23;20411;-76
2023/07/27 07:50:07;;;;;;;69.97;24.80;;;19.70;99.90;;;;;;6242497;23;20914;-76
2023/07/27 07:52:33;;;;;;;65.87;22.20;;;19.70;99.90;;;;;;6242700;23;20418;-77
2023/07/27 07:55:00;;;;;;;67.07;24.60;;;19.60;99.90;;;;;;6242325;23;20414;-77
2023/07/27 07:57:27;;;;;;;68.57;24.10;;;19.70;99.90;;;;;;6242751;23;20408;-76
2023/07/27 07:59:54;;;;;;;67.80;22.10;;;19.90;99.90;;;;;;6242642;23;20439;-77
2023/07/27 08:02:21;;;;;;;68.60;21.63;;;19.90;99.90;;;;;;6242880;23;20404;-77
2023/07/27 08:04:49;;;;;;;68.50;23.77;;;20.10;99.90;;;;;;6242747;23;20416;-76
2023/07/27 08:07:17;;;;;;;68.27;24.37;;;20.10;99.90;;;;;;6242294;23;20874;-77
2023/07/27 08:09:44;;;;;;;75.60;24.73;;;20.00;99.90;;;;;;6242929;23;20490;-76
2023/07/27 08:12:11;;;;;;;67.13;23.83;;;19.80;99.90;;;;;;6242799;23;20431;-77
2023/07/27 08:14:37;;;;;;;70.93;24.67;;;19.80;99.90;;;;;;6242767;23;20412;-75
2023/07/27 08:17:04;;;;;;;67.47;23.77;;;19.90;99.90;;;;;;6242088;23;20411;-81
2023/07/27 08:19:31;;;;;;;67.93;22.40;;;20.00;99.90;;;;;;6241815;23;20411;-76
2023/07/27 08:21:59;;;;;;;67.93;22.30;;;20.00;99.90;;;;;;6242476;23;20408;-74
2023/07/27 08:24:26;;;;;;;66.27;22.63;;;20.00;99.90;;;;;;6242823;23;20421;-76
2023/07/27 08:29:40;;;;;;;69.60;22.87;;;20.20;99.90;;;;;;6223684;23;20430;-76
2023/07/27 08:32:07;;;;;;;70.10;22.97;;;20.40;99.90;;;;;;6238863;23;20793;-75
2023/07/27 08:34:34;;;;;;;66.67;22.83;;;20.40;99.90;;;;;;6242253;23;20435;-77
2023/07/27 08:37:02;;;;;;;65.70;22.40;;;20.40;99.90;;;;;;6242652;23;20408;-75
2023/07/27 08:39:29;;;;;;;72.40;22.50;;;20.50;99.90;;;;;;6242941;23;20420;-76
2023/07/27 08:41:56;;;;;;;72.30;23.27;;;20.50;99.90;;;;;;6244172;23;20467;-76
2023/07/27 08:44:23;;;;;;;68.17;23.97;;;20.60;99.90;;;;;;6244844;23;21071;-76
2023/07/27 08:46:51;;;;;;;76.03;24.30;;;20.80;99.90;;;;;;6244024;23;20502;-76
2023/07/27 08:49:19;;;;;;;66.10;24.00;;;20.80;99.90;;;;;;6244673;23;20737;-75
2023/07/27 08:51:46;;;;;;;68.43;24.13;;;20.60;99.90;;;;;;6244620;23;20467;-75
2023/07/27 08:54:14;;;;;;;70.87;23.77;;;20.60;99.90;;;;;;6244504;23;20906;-76
2023/07/27 08:56:41;;;;;;;67.30;24.07;;;20.50;99.90;;;;;;6244605;23;20412;-76
2023/07/27 08:59:08;;;;;;;65.87;23.73;;;20.50;99.90;;;;;;6244572;23;20407;-75
2023/07/27 09:01:34;;;;;;;66.30;23.20;;;20.50;99.90;;;;;;6244397;23;20474;-77
2023/07/27 09:04:01;;;;;;;67.60;23.40;;;20.60;99.90;;;;;;6244314;23;20410;-77
2023/07/27 09:06:44;;;;;;;66.80;23.40;;;20.50;99.90;;;;;;6244706;23;20396;-76
2023/07/27 09:09:22;;;;;;;67.87;23.03;;;20.60;99.90;;;;;;6240658;23;20414;-76
2023/07/27 09:11:50;;;;;;;72.97;24.47;;;20.80;99.90;;;;;;6244922;23;20465;-78
2023/07/27 09:14:19;;;;;;;67.30;23.57;;;20.80;99.90;;;;;;6244984;23;20399;-75
2023/07/27 09:16:47;;;;;;;69.30;23.30;;;20.80;99.90;;;;;;6245089;23;20438;-75
2023/07/27 09:19:13;;;;;;;68.63;24.50;;;20.70;99.90;;;;;;6244715;23;20400;-76
2023/07/27 09:21:41;;;;;;;67.40;22.37;;;20.70;99.90;;;;;;6243056;23;20954;-76
2023/07/27 09:24:12;;;;;;;65.70;22.50;;;20.70;99.90;;;;;;6243663;23;20963;-75
2023/07/27 09:26:48;;;;;;;66.80;23.90;;;20.70;99.90;;;;;;6243951;23;20490;-75
2023/07/27 09:29:15;;;;;;;67.47;24.57;;;20.70;99.90;;;;;;6244079;23;20403;-75
2023/07/27 09:31:46;;;;;;;69.90;24.50;;;20.90;99.90;;;;;;6244217;23;20407;-76
2023/07/27 09:34:13;;;;;;;66.03;23.63;;;20.90;99.90;;;;;;6243849;23;20435;-76
2023/07/27 09:36:40;;;;;;;66.77;22.90;;;20.90;99.90;;;;;;6244204;23;20400;-75
2023/07/27 09:39:07;;;;;;;67.67;23.93;;;20.90;99.90;;;;;;6243684;23;20914;-76
2023/07/27 09:41:34;;;;;;;67.07;27.10;;;20.70;99.90;;;;;;6243909;23;20451;-74
2023/07/27 09:44:03;;;;;;;74.20;28.27;;;20.50;99.90;;;;;;6244096;23;20423;-75
2023/07/27 09:46:30;;;;;;;69.47;27.70;;;20.10;99.90;;;;;;6243967;23;20411;-74
2023/07/27 09:48:58;;;;;;;68.10;27.03;;;19.90;99.90;;;;;;6243443;23;20416;-76
2023/07/27 09:51:27;;;;;;;67.67;26.07;;;19.70;99.90;;;;;;6243761;23;20408;-75
2023/07/27 09:53:55;;;;;;;67.10;24.70;;;19.60;99.90;;;;;;6244013;23;20403;-75
2023/07/27 09:56:22;;;;;;;67.00;23.43;;;19.60;99.90;;;;;;6244318;23;20729;-75
2023/07/27 09:58:49;;;;;;;69.53;23.40;;;19.70;99.90;;;;;;6243895;23;20507;-75
2023/07/27 10:01:18;;;;;;;66.07;23.77;;;19.90;99.90;;;;;;6243814;23;20443;-76
2023/07/27 10:03:45;;;;;;;65.77;23.60;;;20.20;99.90;;;;;;6243502;23;20407;-76
2023/07/27 10:06:15;;;;;;;65.37;24.13;;;20.40;99.90;;;;;;6243693;23;20412;-76
2023/07/27 10:08:42;;;;;;;67.27;25.10;;;20.40;99.90;;;;;;6243741;23;20431;-76
2023/07/27 10:11:10;;;;;;;66.83;23.80;;;20.60;99.90;;;;;;6243879;23;20412;-75
2023/07/27 10:13:38;;;;;;;66.63;24.00;;;20.60;99.90;;;;;;6243436;23;20428;-76
2023/07/27 10:16:09;;;;;;;66.43;23.40;;;20.60;99.90;;;;;;6243457;23;20408;-77
2023/07/27 10:18:42;;;;;;;66.07;24.30;;;20.60;99.90;;;;;;6243556;23;20743;-76
2023/07/27 10:21:26;;;;;;;68.30;24.23;;;20.60;99.90;;;;;;6243451;23;20431;-76
2023/07/27 10:23:55;;;;;;;70.37;24.53;;;20.60;99.90;;;;;;6243741;23;20422;-76
2023/07/27 10:26:22;;;;;;;71.17;25.87;;;20.60;99.90;;;;;;6243146;23;20434;-76
2023/07/27 10:28:49;;;;;;;70.67;25.87;;;20.60;99.90;;;;;;6243077;23;20414;-76
2023/07/27 10:31:23;;;;;;;66.13;23.63;;;20.50;99.90;;;;;;6242989;23;20767;-76
2023/07/27 10:33:56;;;;;;;67.13;24.80;;;20.50;99.90;;;;;;6243741;23;20435;-76
2023/07/27 10:36:23;;;;;;;67.67;24.40;;;20.60;99.90;;;;;;6243063;23;20412;-76
2023/07/27 10:38:54;;;;;;;71.90;23.73;;;20.70;99.90;;;;;;6243141;23;20584;-76
2023/07/27 10:41:22;;;;;;;69.60;25.40;;;20.70;99.90;;;;;;6243018;23;20439;-77
2023/07/27 10:44:22;;;;;;;69.13;25.47;;;20.80;99.90;;;;;;6243771;23;20419;-77
2023/07/27 10:46:49;;;;;;;67.97;23.63;;;21.10;99.90;;;;;;6120935;23;20392;-79
2023/07/27 10:49:17;;;;;;;66.40;23.33;;;21.30;99.90;;;;;;6120852;23;20963;-76
2023/07/27 10:51:45;;;;;;;73.33;24.70;;;21.60;99.90;;;;;;6175226;23;20466;-76
2023/07/27 10:54:12;;;;;;;68.07;25.33;;;21.70;99.90;;;;;;6242983;23;20934;-76
2023/07/27 10:56:41;;;;;;;69.73;25.80;;;21.80;99.90;;;;;;6242357;23;20438;-75
2023/07/27 10:59:12;;;;;;;67.77;24.27;;;21.70;99.90;;;;;;6242305;23;20426;-75
2023/07/27 11:01:39;;;;;;;66.93;24.73;;;21.80;99.90;;;;;;6242424;23;20766;-76
2023/07/27 11:04:06;;;;;;;67.60;25.20;;;21.80;99.90;;;;;;6242226;23;20896;-76
2023/07/27 11:06:42;;;;;;;67.07;24.50;;;22.00;99.90;;;;;;6242602;23;20419;-74
2023/07/27 11:09:14;;;;;;;67.23;24.57;;;22.50;99.90;;;;;;6242516;23;20392;-74
2023/07/27 11:11:41;;;;;;;69.47;24.40;;;22.60;99.90;;;;;;6242620;23;20447;-76
2023/07/27 11:14:08;;;;;;;66.13;24.50;;;22.60;99.90;;;;;;6242805;23;20785;-76
2023/07/27 11:16:37;;;;;;;66.27;22.43;;;22.50;99.90;;;;;;6242772;23;20419;-76
2023/07/27 11:19:04;;;;;;;67.30;24.17;;;22.30;99.90;;;;;;6235935;23;20987;-77
2023/07/27 11:21:32;;;;;;;66.03;23.20;;;22.70;99.90;;;;;;6242950;23;20443;-76
2023/07/27 11:24:03;;;;;;;66.00;23.27;;;23.00;99.70;;;;;;6243168;23;20462;-74
2023/07/27 11:26:30;;;;;;;66.93;24.33;;;22.90;99.00;;;;;;6243228;23;20412;-74
2023/07/27 11:29:00;;;;;;;67.70;22.73;;;22.90;99.50;;;;;;6242898;23;20415;-74
2023/07/27 11:31:27;;;;;;;65.27;23.83;;;22.80;99.40;;;;;;6242932;23;20403;-75
2023/07/27 11:33:57;;;;;;;65.77;23.90;;;22.70;99.50;;;;;;6242824;23;20435;-75
2023/07/27 11:36:27;;;;;;;65.43;23.07;;;22.90;99.40;;;;;;6243176;23;20404;-76
2023/07/27 11:38:54;;;;;;;64.87;23.97;;;23.10;98.90;;;;;;6242587;23;20403;-76
2023/07/27 11:41:23;;;;;;;66.63;23.77;;;23.50;98.50;;;;;;6242570;23;20467;-76
2023/07/27 11:43:52;;;;;;;66.00;24.27;;;23.40;98.10;;;;;;6242474;23;20423;-76
2023/07/27 11:46:19;;;;;;;64.67;23.67;;;23.60;98.60;;;;;;6242690;23;20408;-75
2023/07/27 11:48:47;;;;;;;66.00;24.47;;;23.70;98.30;;;;;;6242798;23;20418;-76
2023/07/27 11:51:15;;;;;;;67.00;24.50;;;23.60;97.90;;;;;;6242651;23;20408;-76
2023/07/27 11:53:45;;;;;;;66.87;24.40;;;23.60;98.40;;;;;;6241422;23;20415;-76
2023/07/27 11:56:13;;;;;;;69.20;24.67;;;23.70;98.50;;;;;;6241523;23;20408;-74
2023/07/27 11:58:42;;;;;;;65.30;24.20;;;23.60;99.90;;;;;;6241752;23;21015;-76
2023/07/27 12:01:09;;;;;;;65.07;23.90;;;23.40;99.90;;;;;;6242564;23;20527;-73
2023/07/27 12:03:38;;;;;;;65.77;25.30;;;23.20;99.90;;;;;;6242051;23;20412;-72
2023/07/27 12:06:06;;;;;;;66.60;27.60;;;22.80;99.90;;;;;;6241988;23;20416;-73
2023/07/27 12:08:36;;;;;;;67.80;28.93;;;22.60;99.90;;;;;;6242187;23;20466;-73
2023/07/27 12:11:03;;;;;;;68.27;27.77;;;22.40;99.90;;;;;;6242311;23;20408;-73
2023/07/27 12:13:30;;;;;;;68.90;27.60;;;22.30;99.90;;;;;;6241612;23;20587;-73
2023/07/27 12:16:00;;;;;;;69.90;29.03;;;22.10;99.90;;;;;;6241600;23;20400;-72
2023/07/27 12:18:28;;;;;;;69.43;29.20;;;21.90;99.90;;;;;;6242147;23;20412;-73
2023/07/27 12:20:56;;;;;;;69.00;30.13;;;21.70;99.90;;;;;;6241501;23;20438;-72
2023/07/27 12:23:23;;;;;;;71.17;31.80;;;21.70;99.90;;;;;;6241984;23;20412;-75
2023/07/27 12:25:50;;;;;;;72.80;32.40;;;21.50;99.90;;;;;;6242353;23;20418;-73
2023/07/27 12:28:17;;;;;;;68.57;31.97;;;21.20;99.90;;;;;;6241917;23;20407;-79
2023/07/27 12:30:44;;;;;;;70.00;34.30;;;20.90;99.90;;;;;;6241342;23;20415;-79
2023/07/27 12:33:13;;;;;;;69.30;33.43;;;20.70;99.90;;;;;;6241653;23;20432;-80
2023/07/27 12:35:40;;;;;;;69.20;33.87;;;20.50;99.90;;;;;;6241858;23;20404;-81